Aviation Digital Data Service (ADDS)

Output produced by TAFs form (0321 UTC 23 June 2017)
found at http://aviationweather.gov/adds/tafs/
 
KVEL 230224Z 2302/2324 36006KT P6SM SKC 
     FM231400 04008KT P6SM SKC 
     FM231600 08006KT P6SM SKC 
     FM231900 14004KT P6SM SKC